Time;durP1;ratioP1;P1;durP2;ratioP2;P2;SDS_P1;SDS_P2;PMS_P1;PMS_P2;Temp;Humidity;BMP_temperature;BMP_pressure;BME280_temperature;BME280_humidity;BME280_pressure;Samples;Min_cycle;Max_cycle;Signal;HPM_P1;HPM_P2
2022/06/29 04:08:28;;;;;;;7.72;7.03;;;;;;;22.48;85.00;100300.81;5577810;31;205272;-88
2022/06/29 04:11:49;;;;;;;9.02;7.18;;;;;;;22.48;85.00;100300.81;5568704;32;33633;-88
2022/06/29 04:14:52;;;;;;;;;;;;;;;22.12;84.07;100314.31;5565680;32;33739;-88
2022/06/29 04:17:55;;;;;;;9.20;7.05;;;;;;;22.30;82.07;100308.06;5565368;32;34298;-88
2022/06/29 04:21:06;;;;;;;7.47;6.25;;;;;;;22.49;81.32;100305.19;5563715;32;33568;-88
2022/06/29 04:24:09;;;;;;;7.10;6.40;;;;;;;22.70;81.90;100290.53;5564414;32;33757;-88
2022/06/29 04:27:12;;;;;;;7.28;6.60;;;;;;;22.83;81.74;100289.28;5563463;32;34122;-88
2022/06/29 04:30:15;;;;;;;9.52;6.70;;;;;;;23.09;81.03;100302.75;5563466;32;34095;-88
2022/06/29 04:33:18;;;;;;;9.95;6.75;;;;;;;23.20;78.11;100304.38;5563240;32;34299;-88
2022/06/29 04:36:20;;;;;;;10.05;6.82;;;;;;;23.25;77.03;100307.44;5573535;32;33771;-88
2022/06/29 04:39:23;;;;;;;8.32;6.57;;;;;;;23.44;76.11;100302.81;5568972;32;34048;-88
2022/06/29 04:42:29;;;;;;;7.55;6.75;;;;;;;23.61;75.45;100308.28;5568939;32;35224;-88
2022/06/29 04:48:56;;;;;;;11.75;6.50;;;;;;;23.93;74.89;100312.13;5558849;32;33508;-88
2022/06/29 04:51:58;;;;;;;8.07;6.97;;;;;;;24.05;72.66;100305.37;5560080;32;34023;-88
2022/06/29 04:55:02;;;;;;;9.88;6.80;;;;;;;24.01;72.51;100311.25;5563100;32;34561;-89
2022/06/29 04:58:05;;;;;;;7.95;7.15;;;;;;;24.06;72.61;100303.50;5545057;32;34188;-88
2022/06/29 05:01:07;;;;;;;7.72;6.65;;;;;;;24.43;70.14;100307.59;5542708;32;34736;-88
2022/06/29 05:04:10;;;;;;;9.20;7.30;;;;;;;24.53;70.96;100310.16;5545469;32;33643;-88
2022/06/29 05:07:13;;;;;;;8.02;7.22;;;;;;;24.49;70.64;100317.78;5557042;32;35025;-88
2022/06/29 05:10:23;;;;;;;8.05;7.03;;;;;;;24.61;71.01;100307.44;5542126;32;32400;-88
2022/06/29 05:13:26;;;;;;;7.93;7.12;;;;;;;24.91;70.25;100312.34;5542647;32;34080;-88
2022/06/29 05:16:29;;;;;;;12.18;7.20;;;;;;;25.00;70.47;100322.16;5550810;32;34094;-88
2022/06/29 05:19:32;;;;;;;8.95;6.93;;;;;;;25.17;69.21;100316.69;5551360;32;34270;-89
2022/06/29 05:22:35;;;;;;;8.40;6.40;;;;;;;25.77;67.29;100322.59;5549737;32;34612;-88
2022/06/29 05:25:39;;;;;;;7.40;6.50;;;;;;;27.69;59.96;100316.31;5541811;32;35295;-90
2022/06/29 05:28:42;;;;;;;7.93;6.28;;;;;;;30.00;53.57;100317.84;5530970;32;34107;-92
2022/06/29 05:31:45;;;;;;;6.12;5.62;;;;;;;32.26;46.77;100317.81;5530995;32;35045;-92
2022/06/29 05:34:48;;;;;;;7.90;5.32;;;;;;;33.56;41.39;100307.31;5532755;32;34233;-89
2022/06/29 05:37:51;;;;;;;7.45;5.97;;;;;;;34.10;39.99;100310.19;5531237;32;34081;-89
2022/06/29 05:40:53;;;;;;;8.57;5.70;;;;;;;33.74;40.02;100320.22;5532205;32;34805;-89
2022/06/29 05:43:56;;;;;;;8.82;5.55;;;;;;;36.28;36.02;100311.31;5534906;32;34305;-89
2022/06/29 05:46:58;;;;;;;5.62;5.05;;;;;;;37.83;33.12;100303.50;5550726;32;33939;-89
2022/06/29 05:50:02;;;;;;;7.97;5.10;;;;;;;38.32;31.64;100302.59;5541506;32;34035;-89
2022/06/29 05:53:05;;;;;;;7.75;4.85;;;;;;;37.91;31.60;100302.19;5532091;32;33906;-88
2022/06/29 05:56:07;;;;;;;5.37;4.87;;;;;;;37.78;32.25;100287.69;5542913;32;33816;-89
2022/06/29 05:59:10;;;;;;;5.45;4.97;;;;;;;37.74;32.09;100281.00;5543122;32;34659;-89
2022/06/29 06:02:13;;;;;;;6.28;5.40;;;;;;;37.64;31.24;100278.16;5636749;26;34244;-89
2022/06/29 06:20:17;;;;;;;7.03;5.25;;;;;;;40.72;27.37;100282.00;828314;26;20981;-90
2022/06/29 06:23:20;;;;;;;6.40;5.22;;;;;;;39.52;28.43;100286.66;5548396;32;33599;-90
2022/06/29 06:26:23;;;;;;;7.72;5.30;;;;;;;39.72;27.92;100283.94;5548925;32;33876;-91
2022/06/29 06:48:04;;;;;;;5.93;5.25;;;;;;;37.39;30.98;100272.03;5569456;32;20103;-87
2022/06/29 06:51:07;;;;;;;7.95;6.20;;;;;;;36.93;32.56;100269.50;5555135;32;32821;-89
2022/06/29 06:54:09;;;;;;;11.12;5.65;;;;;;;36.15;33.67;100266.38;5569034;32;33947;-90
2022/06/29 06:57:12;;;;;;;7.62;5.40;;;;;;;36.48;33.00;100261.09;5567671;32;34159;-89
2022/06/29 07:00:15;;;;;;;6.43;5.78;;;;;;;36.08;34.17;100254.66;5565414;32;33800;-89
2022/06/29 07:03:18;;;;;;;7.00;5.68;;;;;;;34.63;36.30;100263.59;5548562;32;33834;-89
2022/06/29 07:06:21;;;;;;;13.55;6.07;;;;;;;33.64;38.22;100265.78;5549008;32;33912;-89
2022/06/29 07:09:24;;;;;;;6.72;6.12;;;;;;;34.36;37.53;100265.94;5549553;32;35141;-89
2022/06/29 07:12:26;;;;;;;6.93;5.80;;;;;;;34.22;37.24;100266.19;5555217;32;34633;-89
2022/06/29 07:15:29;;;;;;;8.70;6.70;;;;;;;33.87;38.25;100264.16;5560762;32;33735;-89
2022/06/29 07:18:33;;;;;;;9.73;6.30;;;;;;;33.80;37.69;100267.00;5550461;32;33987;-90
2022/06/29 07:21:36;;;;;;;9.38;6.25;;;;;;;33.91;38.34;100250.75;5540598;32;32642;-89
2022/06/29 07:24:39;;;;;;;9.15;6.30;;;;;;;33.98;38.49;100246.03;5548704;32;34464;-89
2022/06/29 07:27:44;;;;;;;7.75;6.47;;;;;;;33.38;39.72;100251.25;5548318;32;34150;-89
2022/06/29 07:30:46;;;;;;;6.75;6.05;;;;;;;33.21;39.79;100245.56;5553372;32;34041;-89
2022/06/29 07:33:49;;;;;;;6.78;6.18;;;;;;;33.75;39.27;100242.12;5585737;26;32934;-88
2022/06/29 07:36:52;;;;;;;10.23;6.32;;;;;;;33.92;39.33;100239.53;5581200;31;34009;-89
2022/06/29 07:39:55;;;;;;;10.95;6.22;;;;;;;34.10;38.27;100243.31;5574276;31;34417;-89
2022/06/29 07:43:14;;;;;;;8.03;5.93;;;;;;;34.01;39.24;100251.03;5587515;31;35204;-93
2022/06/29 07:46:17;;;;;;;8.45;6.85;;;;;;;34.38;37.93;100255.53;5576584;31;35320;-89
2022/06/29 07:49:20;;;;;;;9.20;5.70;;;;;;;34.51;37.02;100246.22;5583265;31;34109;-91
2022/06/29 07:52:23;;;;;;;8.77;6.37;;;;;;;34.76;37.45;100239.63;5575298;31;34173;-90
2022/06/29 08:02:51;;;;;;;7.93;6.00;;;;;;;35.18;36.53;100235.84;4158661;26;20114;-91
2022/06/29 08:05:54;;;;;;;10.18;6.28;;;;;;;35.58;35.61;100236.91;5606267;31;34375;-90
2022/06/29 08:08:58;;;;;;;10.98;6.00;;;;;;;35.67;34.86;100231.84;5586857;31;34667;-88
2022/06/29 08:12:02;;;;;;;7.78;5.60;;;;;;;35.68;34.75;100233.53;5584906;31;34876;-88
2022/06/29 08:15:05;;;;;;;11.57;6.70;;;;;;;35.60;34.82;100232.03;5585814;31;34403;-87
2022/06/29 08:18:08;;;;;;;7.28;6.12;;;;;;;35.93;34.39;100226.81;5585626;31;33819;-86
2022/06/29 08:21:11;;;;;;;7.35;6.03;;;;;;;36.21;34.45;100227.81;5585842;31;34017;-87
2022/06/29 08:24:13;;;;;;;8.63;5.90;;;;;;;36.59;32.79;100222.59;5585594;31;34570;-88
2022/06/29 08:27:21;;;;;;;9.63;5.90;;;;;;;36.62;32.98;100217.44;5585519;31;34189;-86
2022/06/29 08:30:44;;;;;;;7.28;6.22;;;;;;;36.66;33.28;100217.75;5584544;31;34053;-89
2022/06/29 08:33:47;;;;;;;16.45;5.97;;;;;;;37.00;31.64;100220.37;5584936;31;33687;-88
2022/06/29 08:36:50;;;;;;;5.75;5.15;;;;;;;36.74;30.00;100217.31;5586075;31;34142;-86
2022/06/29 08:39:52;;;;;;;6.93;4.97;;;;;;;36.88;30.35;100215.00;5585760;31;33386;-90
2022/06/29 08:42:56;;;;;;;5.72;4.90;;;;;;;37.26;29.43;100209.69;5585941;31;35131;-91
2022/06/29 08:45:59;;;;;;;9.52;4.93;;;;;;;37.82;29.33;100208.59;5585612;31;35313;-91
2022/06/29 08:49:03;;;;;;;6.65;5.30;;;;;;;37.26;30.29;100204.16;5585806;31;34243;-91
2022/06/29 08:52:08;;;;;;;5.60;4.82;;;;;;;37.38;28.71;100204.00;5585501;31;34516;-87
2022/06/29 08:55:11;;;;;;;6.75;4.85;;;;;;;38.26;28.19;100213.09;5588319;31;34127;-87
2022/06/29 08:58:17;;;;;;;8.82;4.60;;;;;;;38.37;28.07;100205.72;5587548;31;34308;-87
2022/06/29 09:01:20;;;;;;;6.90;4.93;;;;;;;38.57;27.31;100198.62;5574306;31;34083;-87
2022/06/29 09:04:23;;;;;;;5.07;4.57;;;;;;;38.56;26.33;100202.53;5574042;31;33611;-87
2022/06/29 09:07:26;;;;;;;5.93;4.45;;;;;;;39.07;26.15;100198.31;5592903;31;34477;-89
2022/06/29 09:10:30;;;;;;;9.80;4.65;;;;;;;38.60;27.76;100195.31;5588884;31;34378;-86
2022/06/29 09:13:33;;;;;;;6.78;4.10;;;;;;;38.75;26.92;100185.44;5573275;31;32895;-86
2022/06/29 09:16:59;;;;;;;5.10;3.90;;;;;;;38.84;24.55;100183.78;5573683;31;33107;-88
2022/06/29 09:20:03;;;;;;;5.07;4.22;;;;;;;37.92;25.41;100187.62;5574056;31;32470;-88
2022/06/29 09:23:26;;;;;;;7.03;4.37;;;;;;;38.41;25.54;100190.19;5573985;31;33880;-90
2022/06/29 09:26:30;;;;;;;6.62;4.35;;;;;;;38.34;26.59;100186.00;5577947;31;33485;-89
2022/06/29 09:29:39;;;;;;;4.70;4.30;;;;;;;38.37;26.43;100183.53;5597310;31;32333;-88
2022/06/29 09:32:57;;;;;;;4.68;4.28;;;;;;;39.42;25.04;100174.56;5596559;31;34566;-88
2022/06/29 09:36:20;;;;;;;5.15;3.80;;;;;;;38.47;25.60;100171.69;5588432;31;33840;-88
2022/06/29 09:39:34;;;;;;;9.10;4.30;;;;;;;39.62;24.58;100170.16;5589628;31;33733;-87
2022/06/29 09:42:36;;;;;;;4.28;3.90;;;;;;;39.28;23.63;100171.47;5597751;31;33801;-88
2022/06/29 09:45:43;;;;;;;6.00;4.00;;;;;;;39.70;24.24;100166.81;5599551;31;34771;-89
2022/06/29 09:48:46;;;;;;;7.30;3.60;;;;;;;39.85;23.62;100165.97;5597732;31;34871;-91
2022/06/29 09:51:51;;;;;;;7.10;3.90;;;;;;;40.60;23.97;100165.59;5596749;31;35163;-93
2022/06/29 09:54:58;;;;;;;4.43;3.80;;;;;;;40.53;23.07;100163.94;5599875;31;34793;-89
2022/06/29 09:58:03;;;;;;;4.70;4.10;;;;;;;40.14;23.66;100159.88;5591567;31;34780;-88
2022/06/29 10:04:29;;;;;;;5.05;4.10;;;;;;;39.31;23.90;100151.50;5593167;31;33609;-88
2022/06/29 10:07:34;;;;;;;4.18;3.72;;;;;;;39.43;23.96;100145.69;5582006;31;33179;-88
2022/06/29 10:10:37;;;;;;;4.93;3.87;;;;;;;39.04;24.43;100151.72;5577087;31;32787;-88
2022/06/29 10:13:43;;;;;;;5.25;4.00;;;;;;;38.59;24.59;100140.19;5590677;31;34191;-88
2022/06/29 10:17:04;;;;;;;6.12;4.10;;;;;;;38.81;24.91;100140.81;5593853;31;33617;-88
2022/06/29 10:20:23;;;;;;;5.43;4.12;;;;;;;38.11;24.30;100127.16;5578844;31;32319;-88
2022/06/29 10:23:45;;;;;;;7.35;3.80;;;;;;;38.81;24.02;100123.38;5586595;31;33823;-87
2022/06/29 10:26:48;;;;;;;5.78;3.42;;;;;;;39.88;22.15;100114.63;5588410;31;33968;-88
2022/06/29 10:29:50;;;;;;;3.55;3.33;;;;;;;41.63;19.59;100114.91;5573670;31;33325;-87
2022/06/29 10:33:32;;;;;;;4.00;3.70;;;;;;;41.66;19.69;100115.47;5573150;31;34287;-88
2022/06/29 10:37:14;;;;;;;6.80;4.20;;;;;;;40.75;20.87;100115.47;5587548;31;33929;-92
2022/06/29 10:40:20;;;;;;;4.95;3.50;;;;;;;40.93;20.96;100102.88;5596995;31;34504;-89
2022/06/29 10:43:22;;;;;;;6.03;4.30;;;;;;;41.08;20.35;100098.34;5595957;31;34297;-89
2022/06/29 10:46:25;;;;;;;4.32;3.90;;;;;;;39.82;21.70;100101.84;5662821;26;34540;-90
2022/06/29 10:49:35;;;;;;;6.05;3.85;;;;;;;39.37;22.64;100099.66;5551621;32;33666;-88
2022/06/29 10:52:38;;;;;;;4.47;3.90;;;;;;;38.89;22.72;100094.25;5552483;32;34417;-89
2022/06/29 10:55:43;;;;;;;5.95;3.78;;;;;;;38.40;22.98;100093.50;5553679;32;34032;-90
2022/06/29 10:58:45;;;;;;;5.65;3.90;;;;;;;38.54;23.01;100103.03;5520821;32;33404;-90
2022/06/29 11:02:10;;;;;;;4.55;4.00;;;;;;;39.35;22.16;100085.19;5531874;32;34309;-89
2022/06/29 11:05:13;;;;;;;5.87;3.70;;;;;;;39.48;21.59;100087.47;5533509;32;34952;-90
2022/06/29 11:15:46;;;;;;;6.35;3.80;;;;;;;39.30;22.40;100076.91;5529792;32;34303;-89
2022/06/29 11:18:44;;;;;;;4.10;3.70;;;;;;;38.22;23.43;100075.44;5517459;32;34585;-90
2022/06/29 11:22:18;;;;;;;9.18;3.80;;;;;;;37.94;23.57;100070.00;5532890;32;33861;-90
2022/06/29 11:25:21;;;;;;;6.72;3.97;;;;;;;38.32;22.71;100063.59;5531941;32;34434;-90
2022/06/29 11:28:28;;;;;;;5.90;3.87;;;;;;;38.26;23.61;100063.56;5519237;32;33716;-89
2022/06/29 11:31:31;;;;;;;4.07;3.78;;;;;;;38.20;22.68;100061.88;5533296;32;33925;-89
2022/06/29 11:34:34;;;;;;;5.28;4.25;;;;;;;38.10;23.26;100059.88;5549318;32;34053;-89
2022/06/29 11:37:37;;;;;;;5.47;3.83;;;;;;;37.15;24.13;100061.37;5551412;32;34243;-89
2022/06/29 11:40:42;;;;;;;4.78;4.15;;;;;;;37.21;23.64;100041.78;5552616;32;34851;-89
2022/06/29 11:43:45;;;;;;;5.62;4.12;;;;;;;37.56;23.81;100063.63;5550524;32;34360;-90
2022/06/29 11:46:48;;;;;;;4.85;3.72;;;;;;;37.53;23.27;100034.56;5552531;32;33967;-90
2022/06/29 11:49:50;;;;;;;8.05;4.30;;;;;;;37.48;23.57;100042.84;5549363;32;34177;-89
2022/06/29 11:52:53;;;;;;;5.87;4.28;;;;;;;36.73;24.40;100030.53;5552044;32;35165;-90
2022/06/29 11:55:57;;;;;;;4.62;4.15;;;;;;;36.67;23.80;100028.81;5550314;32;34219;-88
2022/06/29 11:59:05;;;;;;;6.30;4.12;;;;;;;37.25;22.38;100021.91;5549573;32;33906;-89
2022/06/29 12:02:10;;;;;;;7.80;4.00;;;;;;;37.06;23.50;100025.88;5527382;32;34072;-88
